TimeCDT,TemperatureF,Dew PointF,Humidity,Sea Level PressureIn,VisibilityMPH,Wind Direction,Wind SpeedMPH,Gust SpeedMPH,PrecipitationIn,Events,Conditions,WindDirDegrees,DateUTC
12:53 AM,68.0,64.0,87,30.07,10.0,Calm,Calm,-,N/A,,Clear,0,2013-05-24 05:53:00
1:53 AM,66.0,64.0,93,30.05,10.0,Calm,Calm,-,N/A,,Clear,0,2013-05-24 06:53:00
2:53 AM,66.0,64.0,93,30.05,10.0,Calm,Calm,-,N/A,,Clear,0,2013-05-24 07:53:00
3:53 AM,64.9,63.0,93,30.04,9.0,Calm,Calm,-,N/A,,Clear,0,2013-05-24 08:53:00
4:53 AM,64.9,63.0,93,30.06,8.0,Calm,Calm,-,N/A,,Clear,0,2013-05-24 09:53:00
5:53 AM,64.0,62.1,93,30.09,7.0,ESE,3.5,-,N/A,,Clear,110,2013-05-24 10:53:00
6:53 AM,66.0,63.0,90,30.12,8.0,Calm,Calm,-,N/A,,Clear,0,2013-05-24 11:53:00
7:53 AM,72.0,66.9,84,30.13,10.0,Calm,Calm,-,N/A,,Clear,0,2013-05-24 12:53:00
8:53 AM,77.0,68.0,74,30.16,10.0,Calm,Calm,-,N/A,,Clear,0,2013-05-24 13:53:00
9:53 AM,81.0,68.0,65,30.16,10.0,NE,4.6,-,N/A,,Scattered Clouds,50,2013-05-24 14:53:00
10:53 AM,82.9,68.0,60,30.16,10.0,East,6.9,-,N/A,,Clear,80,2013-05-24 15:53:00
11:53 AM,84.9,70.0,61,30.17,10.0,Variable,4.6,-,N/A,,Clear,0,2013-05-24 16:53:00
12:53 PM,88.0,69.1,53,30.17,10.0,Variable,5.8,-,N/A,,Clear,0,2013-05-24 17:53:00
1:53 PM,88.0,70.0,55,30.15,10.0,NE,9.2,-,N/A,,Clear,40,2013-05-24 18:53:00
2:53 PM,88.0,70.0,55,30.14,10.0,NE,8.1,-,N/A,,Clear,50,2013-05-24 19:53:00
3:53 PM,87.1,70.0,57,30.13,10.0,ENE,11.5,-,N/A,,Clear,60,2013-05-24 20:53:00
4:53 PM,86.0,69.1,57,30.11,10.0,NE,8.1,-,N/A,,Clear,40,2013-05-24 21:53:00
5:53 PM,84.0,68.0,58,30.11,10.0,ENE,5.8,-,N/A,,Clear,60,2013-05-24 22:53:00
6:53 PM,82.0,68.0,62,30.11,10.0,NE,5.8,-,N/A,,Clear,50,2013-05-24 23:53:00
7:53 PM,79.0,69.1,72,30.13,10.0,Calm,Calm,-,N/A,,Clear,0,2013-05-25 00:53:00
8:53 PM,77.0,68.0,74,30.13,10.0,ENE,3.5,-,N/A,,Clear,70,2013-05-25 01:53:00
9:53 PM,73.0,68.0,84,30.14,10.0,NE,3.5,-,N/A,,Clear,50,2013-05-25 02:53:00
10:53 PM,71.1,68.0,90,30.16,10.0,Calm,Calm,-,N/A,,Clear,0,2013-05-25 03:53:00
11:53 PM,71.1,66.9,87,30.16,10.0,Calm,Calm,-,N/A,,Clear,0,2013-05-25 04:53:00